createdAt,value
2022-10-02T00:00:02.733Z,88.00
2022-10-02T00:01:02.990Z,88.00
2022-10-02T00:02:03.228Z,88.00
2022-10-02T00:03:03.016Z,88.00
2022-10-02T00:04:02.697Z,87.00
2022-10-02T00:05:02.688Z,88.00
2022-10-02T00:06:03.062Z,87.00
2022-10-02T00:07:03.599Z,88.00
2022-10-02T00:08:03.345Z,87.00
2022-10-02T00:09:03.410Z,88.00
2022-10-02T00:10:03.207Z,88.00
2022-10-02T00:11:03.362Z,88.00
2022-10-02T00:12:03.412Z,88.00
2022-10-02T00:13:03.756Z,88.00
2022-10-02T00:14:03.755Z,88.00
2022-10-02T00:15:03.707Z,88.00
2022-10-02T00:16:03.694Z,88.00
2022-10-02T00:17:02.988Z,89.00
2022-10-02T00:18:02.956Z,88.00
2022-10-02T00:19:03.161Z,88.00
2022-10-02T00:20:02.678Z,88.00
2022-10-02T00:21:02.700Z,88.00
2022-10-02T00:22:02.843Z,88.00
2022-10-02T00:23:03.074Z,87.00
2022-10-02T00:24:02.934Z,87.00
2022-10-02T00:25:03.053Z,87.00
2022-10-02T00:26:03.194Z,88.00
2022-10-02T00:27:02.910Z,88.00
2022-10-02T00:28:03.201Z,88.00
2022-10-02T00:29:03.070Z,89.00
2022-10-02T00:30:03.032Z,89.00
2022-10-02T00:31:03.020Z,89.00
2022-10-02T00:32:02.977Z,89.00
2022-10-02T00:33:03.481Z,89.00
2022-10-02T00:34:03.547Z,89.00
2022-10-02T00:35:03.225Z,89.00
2022-10-02T00:36:02.928Z,89.00
2022-10-02T00:37:03.703Z,89.00
2022-10-02T00:38:03.637Z,89.00
2022-10-02T00:39:03.331Z,90.00
2022-10-02T00:40:03.234Z,89.00
2022-10-02T00:41:03.271Z,89.00
2022-10-02T00:42:02.824Z,89.00
2022-10-02T00:43:02.925Z,89.00
2022-10-02T00:44:03.039Z,89.00
2022-10-02T00:45:03.380Z,88.00
2022-10-02T00:46:02.907Z,88.00
2022-10-02T00:47:02.562Z,88.00
2022-10-02T00:48:02.521Z,88.00
2022-10-02T00:49:02.644Z,88.00
2022-10-02T00:50:02.861Z,88.00
2022-10-02T00:51:02.656Z,88.00
2022-10-02T00:52:03.679Z,88.00
2022-10-02T00:53:03.693Z,87.00
2022-10-02T00:54:03.173Z,87.00
2022-10-02T00:55:03.588Z,87.00
2022-10-02T00:56:03.452Z,87.00
2022-10-02T00:57:03.368Z,88.00
2022-10-02T00:58:03.412Z,88.00
2022-10-02T00:59:03.254Z,88.00
2022-10-02T01:00:03.767Z,88.00
2022-10-02T01:01:03.926Z,88.00
2022-10-02T01:02:02.726Z,88.00
2022-10-02T01:03:02.513Z,88.00
2022-10-02T01:04:03.160Z,88.00
2022-10-02T01:05:02.945Z,88.00
2022-10-02T01:06:02.806Z,88.00
2022-10-02T01:07:02.643Z,88.00
2022-10-02T01:08:03.087Z,88.00
2022-10-02T01:09:03.114Z,88.00
2022-10-02T01:10:02.822Z,89.00
2022-10-02T01:11:02.784Z,88.00
2022-10-02T01:12:02.930Z,88.00
2022-10-02T01:13:02.596Z,88.00
2022-10-02T01:14:02.766Z,88.00
2022-10-02T01:15:02.504Z,89.00
2022-10-02T01:16:02.553Z,89.00
2022-10-02T01:17:02.249Z,89.00
2022-10-02T01:18:02.427Z,89.00
2022-10-02T01:19:02.280Z,89.00
2022-10-02T01:20:02.234Z,88.00
2022-10-02T01:21:02.219Z,88.00
2022-10-02T01:22:02.238Z,88.00
2022-10-02T01:23:01.606Z,88.00
2022-10-02T01:24:01.699Z,88.00
2022-10-02T01:25:02.230Z,88.00
2022-10-02T01:26:01.812Z,88.00
2022-10-02T01:27:02.555Z,88.00
2022-10-02T01:28:02.800Z,89.00
2022-10-02T01:29:02.085Z,89.00
2022-10-02T01:30:02.576Z,88.00
2022-10-02T01:31:02.372Z,88.00
2022-10-02T01:32:02.145Z,89.00
2022-10-02T01:33:01.658Z,89.00
2022-10-02T01:34:02.105Z,89.00
2022-10-02T01:35:01.937Z,89.00
2022-10-02T01:36:01.905Z,89.00
2022-10-02T01:37:02.231Z,89.00
2022-10-02T01:38:02.525Z,88.00
2022-10-02T01:39:02.127Z,89.00
2022-10-02T01:40:02.456Z,89.00
2022-10-02T01:41:02.577Z,88.00
2022-10-02T01:42:02.993Z,88.00
2022-10-02T01:43:02.512Z,88.00
2022-10-02T01:44:02.596Z,88.00
2022-10-02T01:45:03.148Z,88.00
2022-10-02T01:46:02.589Z,88.00
2022-10-02T01:47:02.294Z,88.00
2022-10-02T01:48:02.471Z,88.00
2022-10-02T01:49:02.217Z,89.00
2022-10-02T01:50:02.099Z,88.00
2022-10-02T01:51:02.129Z,88.00
2022-10-02T01:52:02.476Z,89.00
2022-10-02T01:53:02.857Z,89.00
2022-10-02T01:54:02.828Z,89.00
2022-10-02T01:55:02.722Z,89.00
2022-10-02T01:56:02.656Z,89.00
2022-10-02T01:57:01.979Z,89.00
2022-10-02T01:58:02.236Z,89.00
2022-10-02T01:59:01.988Z,89.00
2022-10-02T02:00:02.525Z,89.00
2022-10-02T02:01:02.265Z,89.00
2022-10-02T02:02:02.703Z,89.00
2022-10-02T02:03:02.612Z,89.00
2022-10-02T02:04:02.607Z,89.00
2022-10-02T02:05:02.594Z,88.00
2022-10-02T02:06:02.706Z,88.00
2022-10-02T02:07:03.079Z,88.00
2022-10-02T02:08:02.997Z,88.00
2022-10-02T02:09:03.352Z,88.00
2022-10-02T02:10:03.262Z,88.00
2022-10-02T02:11:03.152Z,88.00
2022-10-02T02:12:03.686Z,88.00
2022-10-02T02:13:03.271Z,88.00
2022-10-02T02:14:03.645Z,88.00
2022-10-02T02:15:03.267Z,88.00
2022-10-02T02:16:03.692Z,88.00
2022-10-02T02:17:03.267Z,87.00
2022-10-02T02:18:03.267Z,88.00
2022-10-02T02:19:03.352Z,88.00
2022-10-02T02:20:03.044Z,88.00
2022-10-02T02:21:03.635Z,88.00
2022-10-02T02:22:02.852Z,88.00
2022-10-02T02:23:03.033Z,88.00
2022-10-02T02:24:03.152Z,88.00
2022-10-02T02:25:02.794Z,87.00
2022-10-02T02:26:02.858Z,87.00
2022-10-02T02:27:03.115Z,87.00
2022-10-02T02:28:03.383Z,87.00
2022-10-02T02:29:03.182Z,87.00
2022-10-02T02:30:03.124Z,87.00
2022-10-02T02:31:03.058Z,87.00
2022-10-02T02:32:03.518Z,87.00
2022-10-02T02:33:03.122Z,87.00
2022-10-02T02:34:03.691Z,86.00
2022-10-02T02:35:03.478Z,86.00
2022-10-02T02:36:03.317Z,86.00
2022-10-02T02:37:03.476Z,86.00
2022-10-02T02:38:03.692Z,86.00
2022-10-02T02:39:03.647Z,86.00
2022-10-02T02:40:03.721Z,86.00
2022-10-02T02:41:03.335Z,87.00
2022-10-02T02:42:03.246Z,87.00
2022-10-02T02:43:03.457Z,86.00
2022-10-02T02:44:03.294Z,86.00
2022-10-02T02:45:03.135Z,87.00
2022-10-02T02:46:03.459Z,87.00
2022-10-02T02:47:03.850Z,87.00
2022-10-02T02:48:03.367Z,87.00
2022-10-02T02:49:03.253Z,87.00
2022-10-02T02:50:03.612Z,86.00
2022-10-02T02:51:03.906Z,86.00
2022-10-02T02:52:02.487Z,86.00
2022-10-02T02:53:02.535Z,86.00
2022-10-02T02:54:02.953Z,86.00
2022-10-02T02:55:02.909Z,86.00
2022-10-02T02:56:02.843Z,86.00
2022-10-02T02:57:03.049Z,86.00
2022-10-02T02:58:03.406Z,86.00
2022-10-02T02:59:03.371Z,86.00
2022-10-02T03:00:03.307Z,86.00
2022-10-02T03:01:03.098Z,86.00
2022-10-02T03:02:03.532Z,86.00
2022-10-02T03:03:03.210Z,86.00
2022-10-02T03:04:03.533Z,87.00
2022-10-02T03:05:03.304Z,87.00
2022-10-02T03:06:03.397Z,86.00
2022-10-02T03:07:02.864Z,86.00
2022-10-02T03:08:02.566Z,87.00
2022-10-02T03:09:02.519Z,86.00
2022-10-02T03:10:02.822Z,87.00
2022-10-02T03:11:02.496Z,86.00
2022-10-02T03:12:02.930Z,86.00
2022-10-02T03:13:03.238Z,86.00
2022-10-02T03:14:03.321Z,86.00
2022-10-02T03:15:03.244Z,87.00
2022-10-02T03:16:03.686Z,86.00
2022-10-02T03:17:02.587Z,86.00
2022-10-02T03:18:03.092Z,86.00
2022-10-02T03:19:02.866Z,86.00
2022-10-02T03:20:03.061Z,86.00
2022-10-02T03:21:03.055Z,86.00
2022-10-02T03:22:02.839Z,86.00
2022-10-02T03:23:03.078Z,86.00
2022-10-02T03:24:03.062Z,86.00
2022-10-02T03:25:02.831Z,86.00
2022-10-02T03:26:03.198Z,86.00
2022-10-02T03:27:03.236Z,86.00
2022-10-02T03:28:03.234Z,86.00
2022-10-02T03:29:03.060Z,85.00
2022-10-02T03:30:03.216Z,86.00
2022-10-02T03:31:02.965Z,86.00
2022-10-02T03:32:02.540Z,86.00
2022-10-02T03:33:03.038Z,86.00
2022-10-02T03:34:03.104Z,86.00
2022-10-02T03:35:02.874Z,86.00
2022-10-02T03:36:02.868Z,86.00
2022-10-02T03:37:02.735Z,86.00
2022-10-02T03:38:03.105Z,86.00
2022-10-02T03:40:03.169Z,86.00
2022-10-02T03:41:02.855Z,86.00
2022-10-02T03:42:03.115Z,86.00
2022-10-02T03:43:02.970Z,86.00
2022-10-02T03:44:03.455Z,86.00
2022-10-02T03:45:03.118Z,86.00
2022-10-02T03:46:03.135Z,87.00
2022-10-02T03:47:02.887Z,87.00
2022-10-02T03:48:02.936Z,87.00
2022-10-02T03:49:02.981Z,87.00
2022-10-02T03:50:02.789Z,88.00
2022-10-02T03:51:02.955Z,88.00
2022-10-02T03:52:03.185Z,88.00
2022-10-02T03:53:02.980Z,88.00
2022-10-02T03:54:02.971Z,88.00
2022-10-02T03:55:03.649Z,87.00
2022-10-02T03:56:03.053Z,87.00
2022-10-02T03:57:02.718Z,87.00
2022-10-02T03:58:03.010Z,87.00
2022-10-02T03:59:03.058Z,87.00
2022-10-02T04:00:02.807Z,86.00
2022-10-02T04:01:03.000Z,86.00
2022-10-02T04:02:02.639Z,86.00
2022-10-02T04:03:02.746Z,86.00
2022-10-02T04:04:02.380Z,86.00
2022-10-02T04:05:02.821Z,86.00
2022-10-02T04:06:02.469Z,86.00
2022-10-02T04:07:02.110Z,85.00
2022-10-02T04:08:01.760Z,85.00
2022-10-02T04:09:02.167Z,86.00
2022-10-02T04:10:02.096Z,85.00
2022-10-02T04:11:02.038Z,85.00
2022-10-02T04:12:02.506Z,86.00
2022-10-02T04:13:02.644Z,86.00
2022-10-02T04:14:02.681Z,85.00
2022-10-02T04:15:02.633Z,85.00
2022-10-02T04:16:03.021Z,86.00
2022-10-02T04:17:02.890Z,86.00
2022-10-02T04:18:02.922Z,86.00
2022-10-02T04:19:02.944Z,86.00
2022-10-02T04:20:02.914Z,86.00
2022-10-02T04:21:02.532Z,86.00
2022-10-02T04:22:01.958Z,86.00
2022-10-02T04:23:01.945Z,86.00
2022-10-02T04:24:01.833Z,86.00
2022-10-02T04:25:02.346Z,87.00
2022-10-02T04:26:02.305Z,87.00
2022-10-02T04:27:03.085Z,87.00
2022-10-02T04:28:02.753Z,87.00
2022-10-02T04:29:02.634Z,87.00
2022-10-02T04:30:02.838Z,87.00
2022-10-02T04:31:02.784Z,87.00
2022-10-02T04:32:02.202Z,87.00
2022-10-02T04:33:02.269Z,87.00
2022-10-02T04:34:02.211Z,87.00
2022-10-02T04:35:02.058Z,87.00
2022-10-02T04:36:02.480Z,87.00
2022-10-02T04:37:01.672Z,86.00
2022-10-02T04:38:02.205Z,86.00
2022-10-02T04:39:01.578Z,87.00
2022-10-02T04:40:01.938Z,87.00
2022-10-02T04:41:01.645Z,87.00
2022-10-02T04:42:02.194Z,87.00
2022-10-02T04:43:02.056Z,87.00
2022-10-02T04:44:02.355Z,87.00
2022-10-02T04:45:02.261Z,87.00
2022-10-02T04:46:01.964Z,87.00
2022-10-02T04:47:02.392Z,87.00
2022-10-02T04:48:02.515Z,87.00
2022-10-02T04:49:02.353Z,87.00
2022-10-02T04:50:02.204Z,86.00
2022-10-02T04:51:02.242Z,86.00
2022-10-02T04:52:02.764Z,86.00
2022-10-02T04:53:02.277Z,86.00
2022-10-02T04:54:02.773Z,86.00
2022-10-02T04:55:02.694Z,86.00
2022-10-02T04:56:02.477Z,86.00
2022-10-02T04:57:02.510Z,86.00
2022-10-02T04:58:02.892Z,86.00
2022-10-02T04:59:03.072Z,86.00
2022-10-02T05:00:02.936Z,86.00
2022-10-02T05:01:03.074Z,86.00
2022-10-02T05:02:03.148Z,86.00
2022-10-02T05:03:03.384Z,86.00
2022-10-02T05:04:04.239Z,86.00
2022-10-02T05:05:03.672Z,86.00
2022-10-02T05:06:03.548Z,86.00
2022-10-02T05:07:02.358Z,86.00
2022-10-02T05:08:02.381Z,85.00
2022-10-02T05:09:02.471Z,85.00
2022-10-02T05:10:02.359Z,85.00
2022-10-02T05:11:02.523Z,85.00
2022-10-02T05:12:03.060Z,85.00
2022-10-02T05:13:02.744Z,85.00
2022-10-02T05:14:03.324Z,85.00
2022-10-02T05:15:03.010Z,85.00
2022-10-02T05:16:03.162Z,85.00
2022-10-02T05:17:02.680Z,85.00
2022-10-02T05:18:02.617Z,86.00
2022-10-02T05:19:02.625Z,86.00
2022-10-02T05:20:02.413Z,86.00
2022-10-02T05:21:02.692Z,86.00
2022-10-02T05:22:02.988Z,86.00
2022-10-02T05:23:03.080Z,86.00
2022-10-02T05:24:02.610Z,86.00
2022-10-02T05:25:02.502Z,86.00
2022-10-02T05:26:02.716Z,86.00
2022-10-02T05:27:03.513Z,86.00
2022-10-02T05:28:03.262Z,86.00
2022-10-02T05:29:03.291Z,86.00
2022-10-02T05:30:03.056Z,87.00
2022-10-02T05:31:03.061Z,87.00
2022-10-02T05:32:03.594Z,87.00
2022-10-02T05:33:03.372Z,87.00
2022-10-02T05:34:03.368Z,87.00
2022-10-02T05:35:03.034Z,87.00
2022-10-02T05:36:03.427Z,87.00
2022-10-02T05:37:02.921Z,87.00
2022-10-02T05:38:02.880Z,87.00
2022-10-02T05:39:02.372Z,87.00
2022-10-02T05:40:02.953Z,87.00
2022-10-02T05:41:02.845Z,87.00
2022-10-02T05:42:03.064Z,87.00
2022-10-02T05:43:02.755Z,87.00
2022-10-02T05:44:02.860Z,87.00
2022-10-02T05:45:02.813Z,87.00
2022-10-02T05:46:02.787Z,87.00
2022-10-02T05:47:03.234Z,87.00
2022-10-02T05:48:03.186Z,87.00
2022-10-02T05:49:03.061Z,87.00
2022-10-02T05:50:03.345Z,87.00
2022-10-02T05:51:03.241Z,87.00
2022-10-02T05:52:03.621Z,87.00
2022-10-02T05:53:03.385Z,87.00
2022-10-02T05:54:03.233Z,87.00
2022-10-02T05:55:03.326Z,88.00
2022-10-02T05:56:03.331Z,87.00
2022-10-02T05:57:03.286Z,87.00
2022-10-02T05:58:03.864Z,87.00
2022-10-02T05:59:03.696Z,87.00
2022-10-02T06:00:03.320Z,87.00
2022-10-02T06:01:03.455Z,87.00
2022-10-02T06:02:03.107Z,87.00
2022-10-02T06:03:03.177Z,87.00
2022-10-02T06:04:03.131Z,87.00
2022-10-02T06:05:03.480Z,87.00
2022-10-02T06:06:03.198Z,87.00
2022-10-02T06:07:03.355Z,86.00
2022-10-02T06:08:03.197Z,86.00
2022-10-02T06:09:03.625Z,86.00
2022-10-02T06:10:03.363Z,86.00
2022-10-02T06:11:03.433Z,86.00
2022-10-02T06:12:02.651Z,87.00
2022-10-02T06:13:02.997Z,87.00
2022-10-02T06:14:02.503Z,87.00
2022-10-02T06:15:02.458Z,87.00
2022-10-02T06:16:03.095Z,86.00
2022-10-02T06:17:03.127Z,87.00
2022-10-02T06:18:03.142Z,86.00
2022-10-02T06:19:03.314Z,87.00
2022-10-02T06:20:04.111Z,86.00
2022-10-02T06:21:03.290Z,86.00
2022-10-02T06:22:03.611Z,86.00
2022-10-02T06:23:03.309Z,86.00
2022-10-02T06:24:03.381Z,86.00
2022-10-02T06:25:03.582Z,86.00
2022-10-02T06:26:03.616Z,86.00
2022-10-02T06:27:02.911Z,86.00
2022-10-02T06:28:03.196Z,86.00
2022-10-02T06:29:03.057Z,86.00
2022-10-02T06:30:03.046Z,86.00
2022-10-02T06:31:03.021Z,86.00
2022-10-02T06:32:03.010Z,86.00
2022-10-02T06:33:02.920Z,86.00
2022-10-02T06:34:03.298Z,86.00
2022-10-02T06:35:03.271Z,86.00
2022-10-02T06:36:03.313Z,86.00
2022-10-02T06:37:03.199Z,86.00
2022-10-02T06:38:03.149Z,85.00
2022-10-02T06:39:03.189Z,86.00
2022-10-02T06:40:03.034Z,86.00
2022-10-02T06:41:03.127Z,85.00
2022-10-02T06:42:03.197Z,85.00
2022-10-02T06:43:03.155Z,85.00
2022-10-02T06:44:03.074Z,85.00
2022-10-02T06:45:03.186Z,85.00
2022-10-02T06:46:03.459Z,85.00
2022-10-02T06:47:03.349Z,85.00
2022-10-02T06:48:03.445Z,85.00
2022-10-02T06:49:03.274Z,85.00
2022-10-02T06:50:03.316Z,85.00
2022-10-02T06:51:03.793Z,85.00
2022-10-02T06:52:02.578Z,85.00
2022-10-02T06:53:02.751Z,85.00
2022-10-02T06:54:02.806Z,84.00
2022-10-02T06:55:02.807Z,85.00
2022-10-02T06:56:03.116Z,85.00
2022-10-02T06:57:03.371Z,85.00
2022-10-02T06:58:03.324Z,85.00
2022-10-02T06:59:03.057Z,85.00
2022-10-02T07:00:03.015Z,85.00
2022-10-02T07:01:03.402Z,85.00
2022-10-02T07:02:02.582Z,85.00
2022-10-02T07:03:02.117Z,86.00
2022-10-02T07:04:02.197Z,85.00
2022-10-02T07:05:02.193Z,85.00
2022-10-02T07:06:02.170Z,85.00
2022-10-02T07:07:03.005Z,85.00
2022-10-02T07:08:02.730Z,85.00
2022-10-02T07:09:02.723Z,85.00
2022-10-02T07:10:02.855Z,85.00
2022-10-02T07:11:02.831Z,85.00
2022-10-02T07:12:02.565Z,85.00
2022-10-02T07:13:02.741Z,85.00
2022-10-02T07:14:02.537Z,85.00
2022-10-02T07:15:02.220Z,85.00
2022-10-02T07:16:02.230Z,85.00
2022-10-02T07:17:02.887Z,85.00
2022-10-02T07:18:02.764Z,85.00
2022-10-02T07:19:02.726Z,85.00
2022-10-02T07:20:03.052Z,85.00
2022-10-02T07:21:02.823Z,85.00
2022-10-02T07:22:11.157Z,85.00
2022-10-02T07:23:02.451Z,85.00
2022-10-02T07:24:02.882Z,85.00
2022-10-02T07:25:02.471Z,85.00
2022-10-02T07:26:02.476Z,84.00
2022-10-02T07:27:02.467Z,84.00
2022-10-02T07:28:02.898Z,84.00
2022-10-02T07:29:02.474Z,84.00
2022-10-02T07:30:02.410Z,84.00
2022-10-02T07:31:02.370Z,84.00
2022-10-02T07:32:02.375Z,84.00
2022-10-02T07:33:02.539Z,84.00
2022-10-02T07:34:02.444Z,84.00
2022-10-02T07:35:02.363Z,84.00
2022-10-02T07:36:02.348Z,84.00
2022-10-02T07:37:02.811Z,84.00
2022-10-02T07:38:02.722Z,84.00
2022-10-02T07:39:02.419Z,84.00
2022-10-02T07:40:02.417Z,84.00
2022-10-02T07:41:02.410Z,84.00
2022-10-02T07:42:03.118Z,85.00
2022-10-02T07:43:02.762Z,85.00
2022-10-02T07:44:02.952Z,85.00
2022-10-02T07:45:02.777Z,85.00
2022-10-02T07:46:02.936Z,84.00
2022-10-02T07:47:02.720Z,85.00
2022-10-02T07:48:02.421Z,85.00
2022-10-02T07:49:02.429Z,85.00
2022-10-02T07:50:02.376Z,84.00
2022-10-02T07:51:02.571Z,85.00
2022-10-02T07:52:03.255Z,84.00
2022-10-02T07:53:03.266Z,84.00
2022-10-02T07:54:03.279Z,84.00
2022-10-02T07:55:02.789Z,85.00
2022-10-02T07:56:02.797Z,85.00
2022-10-02T07:57:06.332Z,84.00
2022-10-02T07:58:02.779Z,84.00
2022-10-02T07:59:02.621Z,84.00
2022-10-02T08:00:02.898Z,84.00
2022-10-02T08:01:03.033Z,84.00
2022-10-02T08:02:02.564Z,84.00
2022-10-02T08:03:02.592Z,84.00
2022-10-02T08:04:02.293Z,84.00
2022-10-02T08:05:01.902Z,84.00
2022-10-02T08:06:02.479Z,84.00
2022-10-02T08:07:02.675Z,84.00
2022-10-02T08:08:02.647Z,84.00
2022-10-02T08:09:02.569Z,84.00
2022-10-02T08:10:02.800Z,84.00
2022-10-02T08:11:02.758Z,84.00
2022-10-02T08:12:02.431Z,84.00
2022-10-02T08:13:02.183Z,84.00
2022-10-02T08:14:02.339Z,84.00
2022-10-02T08:15:02.008Z,84.00
2022-10-02T08:16:02.269Z,84.00
2022-10-02T08:17:03.045Z,83.00
2022-10-02T08:18:22.770Z,83.00
2022-10-02T08:19:02.999Z,83.00
2022-10-02T08:20:02.813Z,83.00
2022-10-02T08:21:02.767Z,83.00
2022-10-02T08:22:02.006Z,83.00
2022-10-02T08:23:01.805Z,83.00
2022-10-02T08:24:02.116Z,84.00
2022-10-02T08:25:02.510Z,84.00
2022-10-02T08:26:02.346Z,84.00
2022-10-02T08:27:02.214Z,84.00
2022-10-02T08:28:02.779Z,84.00
2022-10-02T08:29:02.527Z,83.00
2022-10-02T08:30:02.532Z,84.00
2022-10-02T08:31:02.459Z,82.00
2022-10-02T08:32:02.243Z,82.00
2022-10-02T08:33:02.197Z,83.00
2022-10-02T08:34:02.340Z,83.00
2022-10-02T08:35:02.581Z,83.00
2022-10-02T08:36:02.563Z,83.00
2022-10-02T08:37:02.372Z,83.00
2022-10-02T08:38:02.882Z,83.00
2022-10-02T08:39:02.504Z,83.00
2022-10-02T08:40:02.458Z,83.00
2022-10-02T08:41:02.394Z,83.00
2022-10-02T08:42:02.075Z,83.00
2022-10-02T08:43:02.416Z,83.00
2022-10-02T08:44:02.433Z,83.00
2022-10-02T08:45:02.465Z,83.00
2022-10-02T08:46:02.358Z,83.00
2022-10-02T08:47:02.426Z,83.00
2022-10-02T08:48:02.499Z,83.00
2022-10-02T08:49:02.868Z,82.00
2022-10-02T08:50:02.806Z,82.00
2022-10-02T08:51:02.854Z,82.00
2022-10-02T08:52:02.810Z,82.00
2022-10-02T08:53:02.790Z,82.00
2022-10-02T08:54:02.827Z,82.00
2022-10-02T08:55:03.133Z,82.00
2022-10-02T08:56:03.154Z,82.00
2022-10-02T08:57:02.189Z,82.00
2022-10-02T08:58:02.366Z,82.00
2022-10-02T08:59:02.372Z,82.00
2022-10-02T09:00:02.424Z,81.00
2022-10-02T09:01:02.650Z,81.00
2022-10-02T09:02:02.601Z,82.00
2022-10-02T09:03:02.355Z,82.00
2022-10-02T09:04:02.392Z,82.00
2022-10-02T09:05:02.905Z,82.00
2022-10-02T09:06:02.644Z,83.00
2022-10-02T09:07:02.647Z,83.00
2022-10-02T09:08:02.671Z,83.00
2022-10-02T09:09:02.859Z,82.00
2022-10-02T09:10:02.860Z,83.00
2022-10-02T09:11:02.887Z,83.00
2022-10-02T09:12:03.300Z,82.00
2022-10-02T09:13:03.270Z,82.00
2022-10-02T09:14:03.120Z,81.00
2022-10-02T09:15:03.341Z,82.00
2022-10-02T09:16:03.396Z,82.00
2022-10-02T09:17:03.378Z,82.00
2022-10-02T09:18:03.459Z,82.00
2022-10-02T09:19:03.761Z,82.00
2022-10-02T09:20:03.741Z,82.00
2022-10-02T09:21:06.948Z,82.00
2022-10-02T09:22:02.493Z,82.00
2022-10-02T09:23:02.818Z,81.00
2022-10-02T09:24:02.638Z,81.00
2022-10-02T09:25:02.552Z,82.00
2022-10-02T09:26:02.679Z,82.00
2022-10-02T09:27:03.353Z,82.00
2022-10-02T09:28:03.479Z,82.00
2022-10-02T09:29:03.728Z,82.00
2022-10-02T09:30:03.181Z,81.00
2022-10-02T09:31:03.565Z,82.00
2022-10-02T09:32:02.711Z,82.00
2022-10-02T09:33:02.930Z,82.00
2022-10-02T09:34:02.429Z,81.00
2022-10-02T09:35:02.491Z,81.00
2022-10-02T09:36:02.492Z,82.00
2022-10-02T09:37:02.783Z,82.00
2022-10-02T09:38:02.802Z,81.00
2022-10-02T09:39:02.886Z,81.00
2022-10-02T09:40:02.924Z,82.00
2022-10-02T09:41:03.161Z,81.00
2022-10-02T09:42:02.877Z,81.00
2022-10-02T09:43:02.875Z,79.00
2022-10-02T09:44:03.186Z,81.00
2022-10-02T09:45:03.014Z,80.00
2022-10-02T09:46:03.063Z,80.00
2022-10-02T09:47:02.969Z,80.00
2022-10-02T09:48:02.986Z,81.00
2022-10-02T09:49:03.004Z,82.00
2022-10-02T09:50:02.999Z,81.00
2022-10-02T09:51:02.941Z,82.00
2022-10-02T09:52:03.324Z,81.00
2022-10-02T09:53:03.262Z,80.00
2022-10-02T09:54:03.232Z,80.00
2022-10-02T09:55:03.241Z,80.00
2022-10-02T09:56:03.681Z,81.00
2022-10-02T09:57:03.512Z,80.00
2022-10-02T09:58:03.501Z,79.00
2022-10-02T09:59:03.505Z,79.00
2022-10-02T10:00:03.727Z,80.00
2022-10-02T10:01:03.675Z,80.00
2022-10-02T10:02:02.075Z,79.00
2022-10-02T10:03:01.903Z,79.00
2022-10-02T10:04:01.960Z,80.00
2022-10-02T10:05:06.096Z,79.00
2022-10-02T10:06:01.727Z,80.00
2022-10-02T10:07:02.456Z,80.00
2022-10-02T10:08:02.510Z,79.00
2022-10-02T10:09:02.497Z,78.00
2022-10-02T10:10:02.523Z,78.00
2022-10-02T10:11:02.382Z,78.00
2022-10-02T10:12:02.015Z,79.00
2022-10-02T10:13:01.657Z,78.00
2022-10-02T10:14:01.637Z,76.00
2022-10-02T10:15:01.663Z,77.00
2022-10-02T10:16:01.652Z,77.00
2022-10-02T10:17:02.364Z,78.00
2022-10-02T10:18:02.314Z,77.00
2022-10-02T10:19:02.530Z,78.00
2022-10-02T10:20:02.208Z,78.00
2022-10-02T10:21:02.558Z,77.00
2022-10-02T10:22:02.057Z,76.00
2022-10-02T10:23:01.943Z,77.00
2022-10-02T10:24:02.034Z,78.00
2022-10-02T10:25:02.084Z,79.00
2022-10-02T10:26:02.112Z,79.00
2022-10-02T10:27:05.254Z,79.00
2022-10-02T10:28:02.085Z,79.00
2022-10-02T10:29:02.064Z,79.00
2022-10-02T10:30:02.208Z,77.00
2022-10-02T10:31:02.210Z,77.00
2022-10-02T10:32:02.178Z,79.00
2022-10-02T10:33:01.968Z,79.00
2022-10-02T10:34:01.992Z,79.00
2022-10-02T10:35:01.571Z,79.00
2022-10-02T10:36:02.071Z,79.00
2022-10-02T10:37:02.823Z,79.00
2022-10-02T10:38:02.903Z,80.00
2022-10-02T10:39:02.387Z,80.00
2022-10-02T10:40:02.475Z,80.00
2022-10-02T10:41:02.360Z,79.00
2022-10-02T10:42:03.057Z,75.00
2022-10-02T10:43:07.772Z,77.00
2022-10-02T10:44:02.902Z,78.00
2022-10-02T10:45:02.929Z,78.00
2022-10-02T10:46:03.118Z,79.00
2022-10-02T10:47:02.338Z,76.00
2022-10-02T10:48:02.011Z,74.00
2022-10-02T10:49:01.889Z,77.00
2022-10-02T10:50:02.282Z,77.00
2022-10-02T10:51:02.348Z,76.00
2022-10-02T10:52:02.915Z,76.00
2022-10-02T10:53:02.752Z,76.00
2022-10-02T10:54:02.381Z,76.00
2022-10-02T10:55:02.573Z,76.00
2022-10-02T10:56:02.885Z,76.00
2022-10-02T10:57:01.664Z,76.00
2022-10-02T10:58:02.345Z,76.00
2022-10-02T10:59:02.119Z,77.00
2022-10-02T11:00:02.009Z,77.00
2022-10-02T11:01:02.237Z,77.00
2022-10-02T11:02:02.066Z,77.00
2022-10-02T11:03:02.141Z,78.00
2022-10-02T11:04:02.516Z,78.00
2022-10-02T11:05:02.134Z,78.00
2022-10-02T11:06:02.041Z,78.00
2022-10-02T11:07:02.138Z,78.00
2022-10-02T11:08:02.340Z,78.00
2022-10-02T11:09:02.451Z,77.00
2022-10-02T11:10:02.191Z,77.00
2022-10-02T11:11:02.668Z,78.00
2022-10-02T11:12:05.251Z,78.00
2022-10-02T11:13:02.999Z,78.00
2022-10-02T11:14:02.798Z,77.00
2022-10-02T11:15:02.731Z,77.00
2022-10-02T11:16:02.681Z,77.00
2022-10-02T11:17:02.895Z,77.00
2022-10-02T11:18:02.430Z,77.00
2022-10-02T11:19:02.154Z,77.00
2022-10-02T11:20:02.272Z,78.00
2022-10-02T11:21:02.191Z,77.00
2022-10-02T11:22:02.051Z,77.00
2022-10-02T11:23:02.415Z,77.00
2022-10-02T11:24:02.352Z,76.00
2022-10-02T11:25:02.549Z,77.00
2022-10-02T11:26:02.556Z,77.00
2022-10-02T11:27:02.487Z,77.00
2022-10-02T11:28:03.264Z,78.00
2022-10-02T11:29:03.299Z,78.00
2022-10-02T11:30:03.051Z,76.00
2022-10-02T11:31:02.986Z,77.00
2022-10-02T11:32:03.044Z,78.00
2022-10-02T11:33:02.371Z,78.00
2022-10-02T11:34:02.827Z,78.00
2022-10-02T11:35:02.702Z,77.00
2022-10-02T11:36:02.495Z,77.00
2022-10-02T11:37:02.532Z,77.00
2022-10-02T11:38:04.120Z,77.00
2022-10-02T11:39:02.777Z,78.00
2022-10-02T11:40:02.875Z,76.00
2022-10-02T11:41:02.486Z,76.00
2022-10-02T11:42:02.647Z,77.00
2022-10-02T11:43:02.986Z,78.00
2022-10-02T11:44:02.329Z,78.00
2022-10-02T11:45:02.421Z,79.00
2022-10-02T11:46:02.708Z,78.00
2022-10-02T11:47:02.770Z,78.00
2022-10-02T11:48:02.447Z,78.00
2022-10-02T11:49:02.509Z,78.00
2022-10-02T11:50:02.634Z,78.00
2022-10-02T11:51:02.715Z,78.00
2022-10-02T11:52:02.472Z,78.00
2022-10-02T11:53:03.092Z,76.00
2022-10-02T11:54:03.392Z,77.00
2022-10-02T11:55:03.517Z,78.00
2022-10-02T11:56:03.026Z,78.00
2022-10-02T11:57:03.180Z,78.00
2022-10-02T11:58:02.959Z,78.00
2022-10-02T11:59:02.879Z,78.00
2022-10-02T12:00:03.040Z,78.00
2022-10-02T12:01:02.873Z,78.00
2022-10-02T12:02:03.103Z,77.00
2022-10-02T12:03:02.872Z,77.00
2022-10-02T12:04:03.156Z,76.00
2022-10-02T12:05:02.998Z,77.00
2022-10-02T12:06:03.161Z,77.00
2022-10-02T12:07:02.827Z,78.00
2022-10-02T12:08:02.186Z,77.00
2022-10-02T12:09:02.773Z,77.00
2022-10-02T12:10:02.735Z,78.00
2022-10-02T12:11:02.398Z,75.00
2022-10-02T12:12:02.793Z,76.00
2022-10-02T12:13:02.087Z,77.00
2022-10-02T12:14:02.056Z,78.00
2022-10-02T12:15:02.057Z,78.00
2022-10-02T12:16:02.164Z,78.00
2022-10-02T12:17:02.387Z,78.00
2022-10-02T12:18:02.500Z,76.00
2022-10-02T12:19:02.877Z,77.00
2022-10-02T12:20:02.985Z,78.00
2022-10-02T12:21:02.664Z,78.00
2022-10-02T12:22:02.399Z,78.00
2022-10-02T12:23:02.742Z,78.00
2022-10-02T12:24:03.117Z,78.00
2022-10-02T12:25:02.946Z,78.00
2022-10-02T12:26:03.196Z,78.00
2022-10-02T12:27:02.665Z,77.00
2022-10-02T12:28:02.543Z,77.00
2022-10-02T12:29:02.485Z,78.00
2022-10-02T12:30:02.228Z,77.00
2022-10-02T12:31:02.149Z,78.00
2022-10-02T12:32:02.210Z,76.00
2022-10-02T12:33:02.645Z,77.00
2022-10-02T12:34:02.502Z,78.00
2022-10-02T12:35:02.328Z,78.00
2022-10-02T12:36:02.088Z,77.00
2022-10-02T12:37:02.278Z,76.00
2022-10-02T12:38:02.698Z,76.00
2022-10-02T12:39:02.680Z,76.00
2022-10-02T12:40:03.059Z,73.00
2022-10-02T12:41:02.498Z,74.00
2022-10-02T12:42:02.702Z,74.00
2022-10-02T12:43:03.384Z,75.00
2022-10-02T12:44:03.443Z,72.00
2022-10-02T12:45:06.799Z,74.00
2022-10-02T12:46:03.121Z,75.00
2022-10-02T12:47:03.366Z,73.00
2022-10-02T12:48:03.293Z,73.00
2022-10-02T12:49:02.807Z,74.00
2022-10-02T12:50:02.853Z,73.00
2022-10-02T12:51:05.558Z,73.00
2022-10-02T12:52:02.719Z,74.00
2022-10-02T12:53:02.844Z,74.00